Terminal Aerodrome Forecast
Issued by NWS

Home | Current Version | Previous Version | Text Only | Print | Product List | Glossary On
Versions: 1 2 3 4 5 6 7 8 9 10 11 12 13 14 15 16
000
FTUS42 KMLB 221123
TAFFPR
TAF
KFPR 221123Z 2212/2312 08007KT P6SM VCSH SCT020 SCT035
     FM221400 08009KT P6SM VCSH SCT025 SCT050
      TEMPO 2214/2218 5SM SHRA BKN025
     FM230100 10004KT P6SM VCSH SCT020 BKN040
     FM230600 VRB03KT P6SM FEW020 SCT250=

USA.gov is the U.S. government's official web portal to all federal, state and local government web resources and services.